Time;durP1;ratioP1;P1;durP2;ratioP2;P2;SDS_P1;SDS_P2;PMS_P1;PMS_P2;Temp;Humidity;BMP_temperature;BMP_pressure;BME280_temperature;BME280_humidity;BME280_pressure;Samples;Min_cycle;Max_cycle;Signal;HPM_P1;HPM_P2
2021/07/02 00:02:13;;;;;;;33.23;20.50;;;15.00;99.90;;;;;;5134908;27;20476;-83
2021/07/02 00:04:40;;;;;;;32.10;20.20;;;15.00;99.90;;;;;;5132927;27;20476;-84
2021/07/02 00:07:07;;;;;;;39.50;23.80;;;15.10;99.90;;;;;;5135288;27;20505;-85
2021/07/02 00:09:35;;;;;;;34.03;21.30;;;15.10;99.90;;;;;;5127569;27;20445;-85
2021/07/02 00:12:02;;;;;;;40.70;23.50;;;15.10;99.90;;;;;;5148202;27;20543;-85
2021/07/02 00:14:29;;;;;;;33.33;20.00;;;15.00;99.90;;;;;;5147973;27;20523;-85
2021/07/02 00:16:56;;;;;;;35.23;23.37;;;15.00;99.90;;;;;;5149725;27;20448;-85
2021/07/02 00:19:23;;;;;;;39.10;21.50;;;15.10;99.90;;;;;;5148971;27;20441;-85
2021/07/02 00:21:50;;;;;;;43.73;25.13;;;15.10;99.90;;;;;;5147741;27;20520;-85
2021/07/02 00:24:17;;;;;;;35.43;22.80;;;14.90;99.90;;;;;;5148608;27;20534;-85
2021/07/02 00:26:45;;;;;;;32.73;21.23;;;14.90;99.90;;;;;;5135843;27;20556;-85
2021/07/02 00:29:11;;;;;;;48.90;26.57;;;14.90;99.90;;;;;;5137208;27;20475;-85
2021/07/02 00:31:38;;;;;;;41.97;25.30;;;14.90;99.90;;;;;;5143836;27;20457;-84
2021/07/02 00:34:05;;;;;;;32.17;20.83;;;14.80;99.90;;;;;;5147933;27;20527;-86
2021/07/02 00:36:32;;;;;;;41.00;23.50;;;14.90;99.90;;;;;;5147406;27;20555;-85
2021/07/02 00:38:59;;;;;;;42.33;25.00;;;14.90;99.90;;;;;;5146613;27;20523;-81
2021/07/02 00:41:25;;;;;;;50.47;26.73;;;14.90;99.90;;;;;;5146024;27;20476;-83
2021/07/02 00:43:56;;;;;;;30.77;19.80;;;14.90;99.90;;;;;;5126087;27;20484;-85
2021/07/02 00:46:23;;;;;;;34.87;22.43;;;14.80;99.90;;;;;;5124939;28;20485;-83
2021/07/02 00:48:52;;;;;;;47.27;25.90;;;14.80;99.90;;;;;;5125041;28;20477;-85
2021/07/02 00:51:19;;;;;;;45.13;26.37;;;14.60;99.90;;;;;;5125799;28;20524;-85
2021/07/02 00:53:47;;;;;;;42.33;25.10;;;14.70;99.90;;;;;;5125650;28;20532;-85
2021/07/02 00:56:17;;;;;;;33.43;22.43;;;14.70;99.90;;;;;;5126166;28;20548;-85
2021/07/02 00:58:44;;;;;;;40.67;23.27;;;14.80;99.90;;;;;;5128083;27;20448;-84
2021/07/02 01:01:15;;;;;;;36.73;23.33;;;14.80;99.90;;;;;;5144659;27;20448;-85
2021/07/02 01:03:42;;;;;;;41.00;22.27;;;14.70;99.90;;;;;;5145318;27;20484;-85
2021/07/02 01:06:09;;;;;;;33.47;20.57;;;14.70;99.90;;;;;;5145759;27;20543;-85
2021/07/02 01:08:36;;;;;;;38.43;21.80;;;14.70;99.90;;;;;;5143859;27;20444;-85
2021/07/02 01:11:04;;;;;;;37.87;22.97;;;14.80;99.90;;;;;;5144186;27;20464;-85
2021/07/02 01:13:30;;;;;;;39.90;22.97;;;14.90;99.90;;;;;;5144145;27;20444;-84
2021/07/02 01:15:57;;;;;;;38.07;21.17;;;14.80;99.90;;;;;;5141582;27;20511;-84
2021/07/02 01:18:26;;;;;;;35.43;21.53;;;14.80;99.90;;;;;;5144880;27;20448;-84
2021/07/02 01:20:54;;;;;;;29.40;18.23;;;14.80;99.90;;;;;;5146911;27;20484;-84
2021/07/02 01:23:21;;;;;;;35.80;20.00;;;14.90;99.90;;;;;;5146562;27;20577;-85
2021/07/02 01:25:50;;;;;;;49.17;25.80;;;14.90;99.90;;;;;;5146184;27;20464;-85
2021/07/02 01:28:18;;;;;;;41.60;24.20;;;14.80;99.90;;;;;;5145568;27;20433;-84
2021/07/02 01:30:45;;;;;;;31.03;20.73;;;14.80;99.90;;;;;;5144520;27;20455;-84
2021/07/02 01:33:13;;;;;;;38.17;22.57;;;14.80;99.90;;;;;;5142375;27;20441;-85
2021/07/02 01:35:40;;;;;;;41.07;23.03;;;14.80;99.90;;;;;;5141796;27;20476;-84
2021/07/02 01:38:08;;;;;;;37.23;23.10;;;14.80;99.90;;;;;;5142350;27;20451;-84
2021/07/02 01:40:36;;;;;;;40.83;22.43;;;14.90;99.90;;;;;;5142970;27;20892;-84
2021/07/02 01:43:03;;;;;;;32.83;20.90;;;14.90;99.90;;;;;;5141062;27;20479;-85
2021/07/02 01:45:30;;;;;;;37.80;20.47;;;14.80;99.90;;;;;;5127419;27;20465;-84
2021/07/02 01:47:57;;;;;;;46.33;24.30;;;14.80;99.90;;;;;;5121610;28;20464;-83
2021/07/02 01:50:26;;;;;;;37.37;23.83;;;14.70;99.90;;;;;;5121126;28;20449;-85
2021/07/02 01:52:53;;;;;;;39.57;22.77;;;14.70;99.90;;;;;;5122570;28;20512;-85
2021/07/02 01:55:21;;;;;;;51.37;23.43;;;14.90;99.90;;;;;;5131245;28;20492;-83
2021/07/02 01:57:48;;;;;;;35.00;21.50;;;14.70;99.90;;;;;;5134055;28;21038;-83
2021/07/02 02:00:18;;;;;;;34.80;22.43;;;14.80;99.90;;;;;;5131188;27;20528;-84
2021/07/02 02:02:44;;;;;;;38.17;21.90;;;14.70;99.90;;;;;;5122831;28;20453;-84
2021/07/02 02:05:11;;;;;;;35.77;22.13;;;14.70;99.90;;;;;;5123621;28;20908;-84
2021/07/02 02:07:38;;;;;;;50.27;26.60;;;14.70;99.90;;;;;;5123799;28;20449;-83
2021/07/02 02:10:06;;;;;;;41.50;24.77;;;14.70;99.90;;;;;;5123106;28;20469;-84
2021/07/02 02:12:34;;;;;;;38.57;22.30;;;14.80;99.90;;;;;;5122905;28;20548;-85
2021/07/02 02:15:01;;;;;;;41.10;22.93;;;14.80;99.90;;;;;;5124111;28;20567;-84
2021/07/02 02:17:28;;;;;;;43.40;24.23;;;14.70;99.90;;;;;;5125617;28;20925;-85
2021/07/02 02:19:55;;;;;;;39.50;21.53;;;14.70;99.90;;;;;;5124697;28;20473;-84
2021/07/02 02:22:22;;;;;;;56.43;31.37;;;14.80;99.90;;;;;;5123625;28;20445;-85
2021/07/02 02:24:49;;;;;;;40.73;23.07;;;14.70;99.90;;;;;;5124006;28;20561;-83
2021/07/02 02:27:16;;;;;;;39.97;23.00;;;14.80;99.90;;;;;;5124187;28;20515;-84
2021/07/02 02:29:44;;;;;;;57.93;28.70;;;14.80;99.90;;;;;;5122919;28;20453;-84
2021/07/02 02:32:11;;;;;;;39.63;24.37;;;14.80;99.90;;;;;;5124800;28;20445;-85
2021/07/02 02:34:38;;;;;;;36.67;22.03;;;14.80;99.90;;;;;;5139463;28;21011;-83
2021/07/02 02:37:05;;;;;;;53.63;28.70;;;14.90;99.90;;;;;;5144377;27;20831;-85
2021/07/02 02:39:32;;;;;;;47.67;26.13;;;14.80;99.90;;;;;;5143406;28;20448;-84
2021/07/02 02:41:59;;;;;;;41.87;24.80;;;14.80;99.90;;;;;;5144506;27;20471;-84
2021/07/02 02:44:26;;;;;;;35.30;22.00;;;14.80;99.90;;;;;;5145901;27;20562;-84
2021/07/02 02:46:54;;;;;;;49.37;28.30;;;14.90;99.90;;;;;;5148096;27;20532;-83
2021/07/02 02:49:21;;;;;;;45.83;24.87;;;14.80;99.90;;;;;;5147897;27;20944;-83
2021/07/02 02:51:57;;;;;;;58.10;28.70;;;14.70;99.90;;;;;;5129372;28;20483;-84
2021/07/02 02:54:24;;;;;;;42.13;23.43;;;14.70;99.90;;;;;;5128260;28;20501;-83
2021/07/02 02:57:07;;;;;;;36.93;21.90;;;14.70;99.90;;;;;;5128936;28;20469;-84
2021/07/02 02:59:35;;;;;;;59.37;26.83;;;14.80;99.90;;;;;;5129532;28;20464;-84
2021/07/02 03:02:04;;;;;;;35.77;22.03;;;14.80;99.90;;;;;;5128521;28;21014;-84
2021/07/02 03:04:31;;;;;;;43.93;23.20;;;14.80;99.90;;;;;;5128331;28;20476;-84
2021/07/02 03:06:58;;;;;;;37.40;22.80;;;14.70;99.90;;;;;;5129269;27;20545;-84
2021/07/02 03:09:25;;;;;;;51.53;27.30;;;14.80;99.90;;;;;;5127164;28;20470;-84
2021/07/02 03:11:52;;;;;;;40.97;22.60;;;14.70;99.90;;;;;;5127801;28;20505;-84
2021/07/02 03:14:19;;;;;;;38.97;23.23;;;14.70;99.90;;;;;;5127464;28;20449;-84
2021/07/02 03:16:47;;;;;;;45.03;24.33;;;14.90;99.90;;;;;;5128421;28;20555;-84
2021/07/02 03:19:15;;;;;;;39.43;22.60;;;14.90;99.90;;;;;;5131290;27;20440;-84
2021/07/02 03:21:42;;;;;;;46.23;24.97;;;14.90;99.90;;;;;;5136470;27;20535;-84
2021/07/02 03:24:10;;;;;;;44.23;24.27;;;14.90;99.90;;;;;;5132688;27;20548;-83
2021/07/02 03:26:37;;;;;;;42.67;24.47;;;14.90;99.90;;;;;;5128236;28;20473;-84
2021/07/02 03:29:04;;;;;;;53.30;26.57;;;14.70;99.90;;;;;;5127609;28;20451;-84
2021/07/02 03:31:33;;;;;;;51.50;25.37;;;14.70;99.90;;;;;;5128265;28;20441;-83
2021/07/02 03:34:00;;;;;;;46.77;23.13;;;14.70;99.90;;;;;;5127687;28;20517;-83
2021/07/02 03:36:28;;;;;;;36.70;22.03;;;14.70;99.90;;;;;;5128336;28;20544;-84
2021/07/02 03:38:55;;;;;;;41.40;23.37;;;14.70;99.90;;;;;;5130449;27;22053;-84
2021/07/02 03:41:21;;;;;;;37.00;22.57;;;14.80;99.90;;;;;;5148112;27;20478;-84
2021/07/02 03:43:50;;;;;;;34.53;19.83;;;14.80;99.90;;;;;;5148117;27;20544;-84
2021/07/02 03:46:17;;;;;;;44.67;23.70;;;14.80;99.90;;;;;;5148760;27;20468;-83
2021/07/02 03:48:44;;;;;;;40.40;23.07;;;14.80;99.90;;;;;;5147320;27;20534;-84
2021/07/02 03:51:11;;;;;;;36.83;22.20;;;14.80;99.90;;;;;;5140231;27;20481;-84
2021/07/02 03:53:39;;;;;;;40.50;22.43;;;14.90;99.90;;;;;;5139370;27;20448;-84
2021/07/02 03:56:06;;;;;;;43.90;25.20;;;15.00;99.90;;;;;;5138455;27;20467;-83
2021/07/02 03:58:34;;;;;;;46.87;25.10;;;15.00;99.90;;;;;;5149528;27;20470;-83
2021/07/02 04:01:01;;;;;;;58.40;25.57;;;14.90;99.90;;;;;;5147382;27;20542;-83
2021/07/02 04:03:28;;;;;;;39.33;21.90;;;14.90;99.90;;;;;;5148012;27;20480;-83
2021/07/02 04:05:55;;;;;;;41.63;22.10;;;14.80;99.90;;;;;;5145422;27;20478;-83
2021/07/02 04:08:22;;;;;;;36.73;19.80;;;14.90;99.90;;;;;;5142786;27;20573;-84
2021/07/02 04:10:50;;;;;;;34.97;20.33;;;15.10;99.90;;;;;;5142235;27;20548;-82
2021/07/02 04:13:17;;;;;;;34.00;19.63;;;15.00;99.90;;;;;;5124193;27;20817;-82
2021/07/02 04:15:44;;;;;;;34.20;19.90;;;15.10;99.90;;;;;;5120824;28;20663;-82
2021/07/02 04:18:11;;;;;;;46.63;23.17;;;15.00;99.90;;;;;;5138416;27;20472;-80
2021/07/02 04:20:39;;;;;;;36.73;19.70;;;15.10;99.90;;;;;;5141446;27;20877;-82
2021/07/02 04:23:08;;;;;;;32.73;18.47;;;15.00;99.90;;;;;;5142399;27;20502;-82
2021/07/02 04:25:35;;;;;;;43.03;25.17;;;15.10;99.90;;;;;;5142206;27;20551;-83
2021/07/02 04:28:04;;;;;;;36.23;20.60;;;15.10;99.90;;;;;;5140467;27;20522;-81
2021/07/02 04:30:31;;;;;;;33.17;19.60;;;15.00;99.90;;;;;;5134439;28;20516;-81
2021/07/02 04:32:57;;;;;;;28.53;17.77;;;15.10;99.90;;;;;;5135517;28;20536;-80
2021/07/02 04:35:28;;;;;;;38.80;20.87;;;15.10;99.90;;;;;;5127919;28;20560;-83
2021/07/02 04:37:55;;;;;;;33.87;18.27;;;15.10;99.90;;;;;;5120970;28;20447;-82
2021/07/02 04:40:22;;;;;;;31.93;17.97;;;15.20;99.90;;;;;;5120782;28;20484;-81
2021/07/02 04:42:49;;;;;;;43.40;22.27;;;15.20;99.90;;;;;;5120766;28;20441;-82
2021/07/02 04:45:18;;;;;;;29.80;17.43;;;15.10;99.90;;;;;;5122193;27;20564;-83
2021/07/02 04:47:44;;;;;;;33.77;19.50;;;15.10;99.90;;;;;;5121606;28;20541;-82
2021/07/02 04:50:12;;;;;;;33.33;18.30;;;15.10;99.90;;;;;;5122022;28;20449;-81
2021/07/02 04:52:38;;;;;;;40.80;21.00;;;15.10;99.90;;;;;;5122601;28;20452;-81
2021/07/02 04:55:06;;;;;;;30.80;17.33;;;15.10;99.90;;;;;;5122369;28;20854;-83
2021/07/02 04:57:33;;;;;;;30.23;17.87;;;15.10;99.90;;;;;;5122721;28;20455;-81
2021/07/02 05:00:02;;;;;;;33.00;17.60;;;15.20;99.90;;;;;;5120644;28;20452;-83
2021/07/02 05:02:30;;;;;;;38.93;20.43;;;15.20;99.90;;;;;;5122143;27;20460;-82
2021/07/02 05:04:57;;;;;;;30.70;18.10;;;15.10;99.90;;;;;;5119690;28;20576;-83
2021/07/02 05:07:24;;;;;;;28.50;17.00;;;15.10;99.90;;;;;;5120658;28;20540;-82
2021/07/02 05:09:52;;;;;;;45.30;21.40;;;15.00;99.90;;;;;;5120172;28;20457;-82
2021/07/02 05:12:19;;;;;;;42.47;23.43;;;14.90;99.90;;;;;;5119735;28;20452;-82
2021/07/02 05:14:45;;;;;;;31.60;17.97;;;14.80;99.90;;;;;;5120130;28;20444;-81
2021/07/02 05:17:12;;;;;;;31.40;18.10;;;14.90;99.90;;;;;;5121623;27;20452;-82
2021/07/02 05:19:41;;;;;;;45.83;21.77;;;14.80;99.90;;;;;;5141037;27;20542;-83
2021/07/02 05:22:13;;;;;;;40.67;21.27;;;14.70;99.90;;;;;;5140845;27;20455;-82
2021/07/02 05:24:40;;;;;;;33.03;18.87;;;14.70;99.90;;;;;;5140611;27;20920;-83
2021/07/02 05:27:07;;;;;;;46.83;24.07;;;14.60;99.90;;;;;;5140168;27;20451;-82
2021/07/02 05:29:34;;;;;;;39.50;21.23;;;14.60;99.90;;;;;;5139881;27;20448;-83
2021/07/02 05:32:00;;;;;;;33.43;20.10;;;14.50;99.90;;;;;;5140979;27;20516;-82
2021/07/02 05:34:27;;;;;;;44.57;24.27;;;14.50;99.90;;;;;;5139109;27;20875;-82
2021/07/02 05:36:55;;;;;;;32.93;19.10;;;14.50;99.90;;;;;;5140587;27;20547;-82
2021/07/02 05:39:22;;;;;;;37.57;19.90;;;14.70;99.90;;;;;;5139524;27;20531;-82
2021/07/02 05:41:49;;;;;;;29.80;17.43;;;14.70;99.90;;;;;;5139228;27;20573;-82
2021/07/02 05:44:16;;;;;;;34.10;19.63;;;14.90;99.90;;;;;;5140087;27;20484;-83
2021/07/02 05:46:43;;;;;;;36.20;20.83;;;14.90;99.90;;;;;;5139810;27;20464;-81
2021/07/02 05:49:10;;;;;;;37.53;20.83;;;14.90;99.90;;;;;;5152985;27;20455;-78
2021/07/02 05:51:37;;;;;;;45.17;19.13;;;14.90;99.90;;;;;;5140040;27;20449;-78
2021/07/02 05:54:09;;;;;;;38.43;21.90;;;15.00;99.90;;;;;;5139899;27;20444;-80
2021/07/02 05:56:36;;;;;;;31.27;19.23;;;15.00;99.90;;;;;;5141381;27;20472;-79
2021/07/02 05:59:03;;;;;;;36.23;19.70;;;15.10;99.90;;;;;;5141586;27;20487;-79
2021/07/02 06:01:33;;;;;;;32.70;18.30;;;15.10;99.90;;;;;;5142069;27;20456;-78
2021/07/02 06:04:00;;;;;;;34.37;20.97;;;15.20;99.90;;;;;;5143942;27;20475;-80
2021/07/02 06:06:26;;;;;;;32.03;17.90;;;15.40;99.90;;;;;;5142071;27;20466;-80
2021/07/02 06:08:55;;;;;;;32.40;18.27;;;15.50;99.90;;;;;;5127582;27;20542;-81
2021/07/02 06:11:23;;;;;;;33.90;18.60;;;15.50;99.90;;;;;;5127361;27;20480;-81
2021/07/02 06:13:53;;;;;;;29.70;17.37;;;15.70;99.90;;;;;;5126538;27;20450;-81
2021/07/02 06:16:19;;;;;;;32.40;17.23;;;15.70;99.90;;;;;;5128163;27;20479;-81
2021/07/02 06:18:46;;;;;;;28.80;16.30;;;15.80;99.90;;;;;;5124271;27;20450;-80
2021/07/02 06:21:15;;;;;;;33.23;17.63;;;16.00;99.90;;;;;;5126829;27;20450;-80
2021/07/02 06:23:42;;;;;;;32.97;20.30;;;16.10;99.90;;;;;;5122865;27;20452;-81
2021/07/02 06:26:09;;;;;;;29.70;17.50;;;16.20;99.90;;;;;;5125620;28;20489;-81
2021/07/02 06:28:40;;;;;;;28.53;15.93;;;16.20;99.90;;;;;;5127088;28;20495;-80
2021/07/02 06:31:09;;;;;;;35.20;16.73;;;16.30;99.90;;;;;;5127914;27;20441;-80
2021/07/02 06:33:38;;;;;;;30.57;17.90;;;16.10;99.90;;;;;;5125355;27;20460;-80
2021/07/02 06:36:06;;;;;;;29.00;15.43;;;16.00;99.90;;;;;;5124350;28;20525;-79
2021/07/02 06:38:32;;;;;;;28.93;16.70;;;16.00;99.90;;;;;;5129562;28;20451;-80
2021/07/02 06:40:59;;;;;;;42.53;19.00;;;16.00;99.90;;;;;;5127984;28;20606;-79
2021/07/02 06:43:31;;;;;;;28.10;15.13;;;15.80;99.90;;;;;;5136400;28;20524;-79
2021/07/02 06:45:59;;;;;;;33.17;19.40;;;15.80;99.90;;;;;;5136188;28;20564;-78
2021/07/02 06:48:26;;;;;;;28.07;17.00;;;15.80;99.90;;;;;;5134894;28;20528;-80
2021/07/02 06:50:56;;;;;;;35.93;17.90;;;16.00;99.90;;;;;;5140327;28;20500;-78
2021/07/02 06:53:23;;;;;;;31.43;16.33;;;16.10;99.90;;;;;;5138489;28;20472;-78
2021/07/02 06:55:51;;;;;;;32.50;16.37;;;16.20;99.90;;;;;;5136022;28;20470;-79
2021/07/02 06:58:17;;;;;;;39.43;17.67;;;16.30;99.90;;;;;;5138638;28;20459;-78
2021/07/02 07:00:44;;;;;;;25.60;16.00;;;16.30;99.90;;;;;;5142294;28;20516;-80
2021/07/02 07:03:13;;;;;;;34.33;19.80;;;16.40;99.90;;;;;;5139476;28;20487;-78
2021/07/02 07:05:41;;;;;;;32.40;19.20;;;16.50;99.90;;;;;;5146229;28;20476;-80
2021/07/02 07:08:09;;;;;;;26.70;15.40;;;16.60;99.90;;;;;;5144336;27;20500;-79
2021/07/02 07:10:37;;;;;;;26.37;14.00;;;17.00;99.90;;;;;;5117860;28;20445;-80
2021/07/02 07:13:06;;;;;;;29.00;15.17;;;17.20;99.90;;;;;;5119409;28;20480;-80
2021/07/02 07:15:33;;;;;;;27.83;11.73;;;17.20;99.90;;;;;;5125618;28;21047;-79
2021/07/02 07:18:00;;;;;;;24.13;12.87;;;17.30;99.90;;;;;;5126046;28;20444;-80
2021/07/02 07:20:28;;;;;;;30.60;15.50;;;17.40;99.90;;;;;;5126658;28;20432;-80
2021/07/02 07:22:55;;;;;;;25.27;12.63;;;17.60;99.90;;;;;;5137370;27;20511;-81
2021/07/02 07:25:22;;;;;;;22.17;10.40;;;17.60;99.90;;;;;;5137688;28;20480;-81
2021/07/02 07:27:49;;;;;;;19.23;9.73;;;17.70;99.90;;;;;;5137984;27;20464;-81
2021/07/02 07:30:17;;;;;;;18.27;9.63;;;17.80;99.90;;;;;;5121141;27;20454;-80
2021/07/02 07:32:46;;;;;;;24.37;10.50;;;17.90;99.90;;;;;;5127004;27;20439;-80
2021/07/02 07:35:19;;;;;;;22.10;8.80;;;18.00;99.90;;;;;;5138634;27;21023;-80
2021/07/02 07:37:51;;;;;;;17.83;10.10;;;18.10;99.90;;;;;;5125072;27;20461;-81
2021/07/02 07:40:18;;;;;;;22.57;9.40;;;18.30;99.90;;;;;;5141560;27;20452;-81
2021/07/02 07:42:45;;;;;;;22.57;10.40;;;18.30;99.90;;;;;;5142093;27;20534;-81
2021/07/02 07:45:12;;;;;;;22.37;11.00;;;18.40;99.90;;;;;;5137867;27;20502;-80
2021/07/02 07:47:39;;;;;;;19.53;9.80;;;18.20;99.90;;;;;;5140954;27;20532;-81
2021/07/02 07:50:09;;;;;;;19.97;8.97;;;18.30;99.90;;;;;;5141662;27;20503;-81
2021/07/02 07:52:54;;;;;;;20.20;8.50;;;18.40;99.90;;;;;;5141562;27;20460;-81
2021/07/02 07:55:23;;;;;;;18.57;9.07;;;18.40;99.90;;;;;;5135501;27;20482;-81
2021/07/02 07:57:50;;;;;;;16.47;7.97;;;18.10;99.90;;;;;;5140607;27;20444;-81
2021/07/02 08:00:18;;;;;;;20.20;7.70;;;18.20;99.90;;;;;;5141708;27;20528;-81
2021/07/02 08:02:45;;;;;;;15.43;7.60;;;18.20;99.90;;;;;;5131100;27;20453;-81
2021/07/02 08:05:13;;;;;;;16.30;8.37;;;18.30;99.90;;;;;;5132844;27;20536;-80
2021/07/02 08:07:41;;;;;;;13.10;7.00;;;18.30;99.90;;;;;;5135088;27;20437;-81
2021/07/02 08:10:10;;;;;;;13.20;5.67;;;18.50;99.90;;;;;;5130152;27;20450;-81
2021/07/02 08:12:39;;;;;;;11.43;4.57;;;18.60;99.90;;;;;;5131463;27;20444;-81
2021/07/02 08:15:09;;;;;;;13.43;4.93;;;18.90;99.90;;;;;;5132634;27;20467;-81
2021/07/02 08:17:36;;;;;;;12.57;3.87;;;18.70;99.90;;;;;;5130482;27;20532;-81
2021/07/02 08:20:04;;;;;;;12.03;3.80;;;18.40;99.90;;;;;;5134415;27;20450;-81
2021/07/02 08:22:31;;;;;;;12.40;4.00;;;18.20;99.90;;;;;;5125010;27;20476;-80
2021/07/02 08:24:58;;;;;;;10.63;4.00;;;18.40;99.90;;;;;;5129116;27;20487;-80
2021/07/02 08:27:26;;;;;;;14.97;4.40;;;18.50;99.90;;;;;;5129443;27;20812;-81
2021/07/02 08:29:54;;;;;;;12.50;4.30;;;18.30;99.90;;;;;;5125134;27;20527;-79
2021/07/02 08:32:21;;;;;;;13.23;4.37;;;18.50;99.90;;;;;;5121519;27;20445;-81
2021/07/02 08:34:48;;;;;;;13.23;4.83;;;18.60;99.90;;;;;;5124803;27;20528;-80
2021/07/02 08:37:15;;;;;;;11.60;4.50;;;19.00;99.90;;;;;;5127096;27;20480;-81
2021/07/02 08:39:44;;;;;;;12.97;3.80;;;19.20;99.90;;;;;;5128398;27;20460;-81
2021/07/02 08:42:11;;;;;;;11.00;4.17;;;19.00;99.90;;;;;;5139497;27;20535;-81
2021/07/02 08:44:38;;;;;;;10.00;4.03;;;18.80;99.90;;;;;;5141344;27;21023;-81
2021/07/02 08:47:07;;;;;;;10.17;3.37;;;18.70;99.90;;;;;;5133174;27;20452;-81
2021/07/02 08:49:35;;;;;;;11.03;3.53;;;18.90;99.90;;;;;;5128707;27;20437;-81
2021/07/02 08:52:02;;;;;;;11.87;3.63;;;19.10;99.90;;;;;;5129661;27;20479;-80
2021/07/02 08:54:29;;;;;;;13.07;4.30;;;18.90;99.90;;;;;;5138960;27;20527;-80
2021/07/02 08:56:58;;;;;;;13.70;3.90;;;18.80;99.90;;;;;;5122823;27;20476;-82
2021/07/02 08:59:27;;;;;;;12.03;4.23;;;19.10;99.90;;;;;;5119820;28;20453;-80
2021/07/02 09:01:54;;;;;;;9.13;3.90;;;19.10;99.90;;;;;;5129011;27;20522;-80
2021/07/02 09:04:23;;;;;;;13.93;4.53;;;19.30;99.90;;;;;;5140664;27;20459;-80
2021/07/02 09:07:02;;;;;;;9.97;3.50;;;19.00;99.90;;;;;;5139805;27;20484;-80
2021/07/02 09:09:49;;;;;;;12.27;3.17;;;18.90;99.90;;;;;;5119773;28;20546;-81
2021/07/02 09:12:18;;;;;;;12.77;3.47;;;19.30;99.90;;;;;;5120732;28;20890;-80
2021/07/02 09:15:06;;;;;;;11.87;2.63;;;19.50;99.90;;;;;;5120512;28;20483;-80
2021/07/02 09:17:35;;;;;;;10.40;3.00;;;19.90;99.90;;;;;;5132547;28;20460;-80
2021/07/02 09:20:15;;;;;;;16.97;3.10;;;20.20;99.90;;;;;;5131661;28;20456;-80
2021/07/02 09:22:47;;;;;;;14.33;3.03;;;19.90;99.90;;;;;;5130835;28;20509;-80
2021/07/02 09:25:27;;;;;;;11.53;2.80;;;20.10;99.90;;;;;;5132938;27;20517;-81
2021/07/02 09:27:57;;;;;;;14.33;2.80;;;19.80;99.90;;;;;;5132531;28;20445;-81
2021/07/02 09:30:26;;;;;;;18.60;3.33;;;19.90;99.90;;;;;;5132217;28;20467;-80
2021/07/02 09:32:54;;;;;;;15.03;2.80;;;19.60;99.90;;;;;;5132774;28;20513;-81
2021/07/02 09:35:24;;;;;;;11.17;3.47;;;19.70;99.90;;;;;;5132224;28;20537;-80
2021/07/02 09:37:56;;;;;;;14.05;3.60;;;20.10;99.90;;;;;;5131675;28;20427;-82
2021/07/02 09:40:26;;;;;;;15.20;3.07;;;20.30;99.90;;;;;;5134229;27;20218;-81
2021/07/02 09:43:00;;;;;;;12.07;3.43;;;20.90;99.90;;;;;;5132013;28;20433;-80
2021/07/02 09:45:28;;;;;;;15.43;3.20;;;21.40;99.90;;;;;;5130295;28;20602;-80
2021/07/02 09:47:56;;;;;;;17.43;3.47;;;22.00;99.90;;;;;;5130542;22;20504;-87
2021/07/02 09:50:29;;;;;;;10.50;2.90;;;21.70;99.90;;;;;;5115569;28;20502;-85
2021/07/02 09:52:59;;;;;;;17.40;3.33;;;21.80;99.90;;;;;;5116964;28;20929;-86
2021/07/02 09:55:28;;;;;;;12.17;4.20;;;21.40;99.90;;;;;;5113507;28;20429;-86
2021/07/02 09:58:07;;;;;;;15.93;3.50;;;21.50;99.90;;;;;;5117111;28;20503;-85
2021/07/02 10:00:39;;;;;;;18.90;3.60;;;20.90;99.90;;;;;;5116690;28;20455;-85
2021/07/02 10:03:07;;;;;;;15.03;3.13;;;20.60;99.90;;;;;;5115877;28;20509;-85
2021/07/02 10:05:49;;;;;;;17.53;3.10;;;21.10;99.90;;;;;;5117303;28;20480;-85
2021/07/02 10:08:16;;;;;;;22.37;3.33;;;21.40;99.90;;;;;;5117772;28;20551;-87
2021/07/02 10:10:44;;;;;;;20.43;3.50;;;21.10;99.90;;;;;;5119110;28;20473;-86
2021/07/02 10:13:12;;;;;;;15.53;2.70;;;20.60;99.90;;;;;;5118049;28;20437;-85
2021/07/02 10:15:41;;;;;;;18.10;3.67;;;20.90;99.90;;;;;;5116210;28;20448;-85
2021/07/02 10:18:11;;;;;;;19.23;4.17;;;21.10;99.90;;;;;;5098538;28;20517;-84
2021/07/02 10:20:42;;;;;;;13.27;4.00;;;21.20;99.90;;;;;;5098897;28;20454;-85
2021/07/02 10:23:11;;;;;;;34.07;4.40;;;21.10;99.90;;;;;;5095991;28;20454;-85
2021/07/02 10:25:41;;;;;;;21.37;4.50;;;20.90;99.90;;;;;;5097836;28;20485;-85
2021/07/02 10:28:10;;;;;;;25.70;3.10;;;20.90;99.90;;;;;;5098661;28;20542;-85
2021/07/02 10:30:39;;;;;;;13.47;3.47;;;21.40;99.90;;;;;;5102822;28;20452;-86
2021/07/02 10:33:06;;;;;;;41.17;4.30;;;21.60;99.90;;;;;;5098115;28;20529;-86
2021/07/02 10:35:35;;;;;;;14.43;3.83;;;22.00;99.90;;;;;;5101032;28;20491;-86
2021/07/02 10:38:04;;;;;;;34.30;3.67;;;22.40;99.90;;;;;;5098314;28;20466;-85
2021/07/02 10:40:36;;;;;;;29.63;3.70;;;22.10;99.90;;;;;;5099750;28;20442;-83
2021/07/02 10:43:14;;;;;;;42.93;5.97;;;22.10;99.90;;;;;;5095764;28;20456;-84
2021/07/02 10:46:12;;;;;;;41.73;6.10;;;21.60;99.90;;;;;;5098586;28;20482;-85
2021/07/02 10:49:10;;;;;;;25.80;3.93;;;21.30;99.90;;;;;;5091648;28;20434;-85
2021/07/02 10:51:51;;;;;;;43.90;4.07;;;20.80;99.90;;;;;;5101404;28;20452;-86
2021/07/02 10:54:30;;;;;;;22.50;4.83;;;21.20;99.90;;;;;;5094122;28;21000;-86
2021/07/02 10:57:17;;;;;;;16.40;3.73;;;20.90;99.90;;;;;;5093879;28;20469;-86
2021/07/02 11:00:12;;;;;;;14.40;3.93;;;21.40;99.90;;;;;;5092588;28;20892;-85
2021/07/02 11:02:41;;;;;;;25.10;4.40;;;21.60;99.90;;;;;;5102789;28;20459;-85
2021/07/02 11:05:31;;;;;;;26.40;4.10;;;21.30;99.90;;;;;;5113694;28;20849;-84
2021/07/02 11:07:59;;;;;;;18.30;3.90;;;20.80;99.90;;;;;;5100858;28;20466;-84
2021/07/02 11:10:47;;;;;;;27.00;4.20;;;20.80;99.90;;;;;;5099566;28;20461;-85
2021/07/02 11:13:14;;;;;;;14.13;4.07;;;20.70;99.90;;;;;;5117490;27;20463;-84
2021/07/02 11:16:10;;;;;;;25.13;3.97;;;21.00;99.90;;;;;;5102464;28;20445;-86
2021/07/02 11:18:44;;;;;;;26.80;4.57;;;21.20;99.90;;;;;;5099583;28;20941;-85
2021/07/02 11:21:18;;;;;;;27.30;3.90;;;21.10;99.90;;;;;;5099165;28;20461;-85
2021/07/02 11:23:45;;;;;;;41.37;4.33;;;21.30;99.90;;;;;;5100002;28;20453;-85
2021/07/02 11:26:45;;;;;;;22.63;4.17;;;21.40;99.90;;;;;;5099475;28;20481;-85
2021/07/02 11:29:12;;;;;;;14.47;4.30;;;21.60;99.90;;;;;;5099848;28;20546;-86
2021/07/02 11:31:39;;;;;;;19.27;4.20;;;21.60;99.90;;;;;;5097513;28;20485;-86
2021/07/02 11:34:15;;;;;;;79.77;61.43;;;22.50;99.90;;;;;;5097029;28;20486;-86
2021/07/02 11:37:10;;;;;;;42.57;4.80;;;23.50;99.90;;;;;;5097504;28;20822;-85
2021/07/02 11:39:38;;;;;;;45.87;5.17;;;23.70;99.90;;;;;;5097273;28;20550;-85
2021/07/02 11:42:11;;;;;;;37.87;5.63;;;23.40;99.90;;;;;;5095876;28;20446;-87
2021/07/02 11:44:38;;;;;;;49.23;8.17;;;23.40;99.90;;;;;;5101825;27;20953;-85
2021/07/02 11:47:05;;;;;;;55.40;9.67;;;23.30;99.90;;;;;;5117339;28;20551;-85
2021/07/02 11:49:32;;;;;;;39.97;5.40;;;23.20;99.90;;;;;;5116895;28;20433;-85
2021/07/02 11:51:59;;;;;;;35.77;5.70;;;23.40;99.90;;;;;;5107384;28;20541;-85
2021/07/02 11:54:26;;;;;;;50.30;9.27;;;23.00;99.90;;;;;;5113980;28;20453;-85
2021/07/02 11:56:53;;;;;;;45.57;5.17;;;22.20;99.90;;;;;;5114041;28;20549;-86
2021/07/02 11:59:24;;;;;;;40.67;8.67;;;22.10;99.90;;;;;;5112315;27;20441;-84
2021/07/02 12:01:55;;;;;;;43.03;6.40;;;21.90;99.90;;;;;;5116484;28;20937;-85
2021/07/02 12:04:22;;;;;;;39.17;7.47;;;21.50;99.90;;;;;;5117917;28;20447;-85
2021/07/02 12:06:51;;;;;;;35.40;7.03;;;21.60;99.90;;;;;;5116873;28;20563;-84
2021/07/02 12:09:20;;;;;;;30.40;5.43;;;21.90;99.90;;;;;;5107082;28;20534;-86
2021/07/02 12:11:51;;;;;;;44.90;5.40;;;22.30;99.90;;;;;;5100011;28;20541;-85
2021/07/02 12:14:23;;;;;;;22.60;6.27;;;22.30;99.90;;;;;;5106472;28;20454;-85
2021/07/02 12:16:51;;;;;;;22.17;5.40;;;21.90;99.90;;;;;;5103718;28;20462;-85
2021/07/02 12:19:20;;;;;;;24.23;5.20;;;21.80;99.90;;;;;;5103702;28;20433;-85
2021/07/02 12:21:51;;;;;;;18.97;5.30;;;21.50;99.90;;;;;;5104688;28;20532;-85
2021/07/02 12:24:20;;;;;;;21.70;6.40;;;21.70;99.90;;;;;;5101457;28;20465;-85
2021/07/02 12:26:51;;;;;;;28.37;6.50;;;21.90;99.90;;;;;;5102049;28;20486;-85
2021/07/02 12:29:18;;;;;;;31.67;5.30;;;21.70;99.90;;;;;;5103372;28;20449;-86
2021/07/02 12:31:49;;;;;;;33.00;7.00;;;22.00;99.90;;;;;;5105788;28;20873;-87
2021/07/02 12:34:19;;;;;;;59.43;19.47;;;23.00;99.90;;;;;;5101995;28;20445;-86
2021/07/02 12:37:04;;;;;;;61.50;26.63;;;24.00;99.90;;;;;;5094798;28;20493;-85
2021/07/02 12:39:32;;;;;;;1999.90;999.90;;;25.70;99.90;;;;;;5093527;28;20442;-86
2021/07/02 12:42:01;;;;;;;620.77;585.40;;;27.80;99.90;;;;;;5093434;28;20857;-88